Zim Vancouver — A8LK5 — position and weather

sailwx.info

Track history (hours):
 
Tides and Currents Weather Stations Pressure Air Temp Water Temp Dewpoint Dewpoint Depression Visibility Wind Speed Wind Dir Waves Ship Positions

Zim Vancouver

Last reported at 2016-Jun-29 18:06 UTC. Time now 2016-Jun-29 23:45 UTC.
Position N 37°44' W 012°45'.

Length 260 m; draft 11.6 m.

Type: Ship. MMSI: 636013214.

Date/timePositionNaut miles runAvg speedWind from/ knotsBaromVisibWave heightAir tempDewpointWater temp
2016-Jun-29 18:06N 37°44' W 012°45'915.4
2016-Jun-29 17:32N 37°42' W 012°34'8715.8
2016-Jun-29 12:00N 37°18' W 010°48'6714.4 010 / 281019.0 5.4 2.020.017.022.0
2016-Jun-29 07:19N 36°57' W 009°28'1414.8
2016-Jun-29 06:23N 36°46' W 009°17'6515.0
2016-Jun-29 02:03N 36°24' W 008°01'11815.7
2016-Jun-28 18:33N 35°58' W 005°38'1515.3
2016-Jun-28 17:33N 36°01' W 005°20'22314.5
2016-Jun-28 02:13N 37°17' W 000°59'1115.8
2016-Jun-28 01:33N 37°24' W 000°49'1616.0
2016-Jun-28 00:33N 37°35' W 000°34'1615.5
2016-Jun-27 23:33N 37°47' W 000°23'1515.4
2016-Jun-27 22:33N 38°00' W 000°12'5115.0
2016-Jun-27 19:08N 38°44' E 000°23'5314.8
2016-Jun-27 15:32N 39°26' W 000°19'1 0.7
2016-Jun-27 14:31N 39°27' W 000°19'0 0.0
2016-Jun-27 13:31N 39°27' W 000°19'0 0.0
2016-Jun-27 12:31N 39°27' W 000°19'0 0.0
2016-Jun-27 11:31N 39°27' W 000°19'0 0.0
2016-Jun-27 10:31N 39°27' W 000°19'0 0.0
2016-Jun-27 09:28N 39°27' W 000°19'0 0.0
2016-Jun-27 08:28N 39°27' W 000°19'0 0.0
2016-Jun-27 07:28N 39°27' W 000°19'0 0.0
2016-Jun-27 06:28N 39°27' W 000°19'0 0.0
2016-Jun-27 05:31N 39°27' W 000°19'0 0.0
2016-Jun-27 04:31N 39°27' W 000°19'0 0.0
2016-Jun-27 03:31N 39°27' W 000°19'0 0.0
2016-Jun-27 02:31N 39°27' W 000°19'0 0.0
2016-Jun-27 01:31N 39°27' W 000°19'0 0.0
2016-Jun-27 00:31N 39°27' W 000°19'0 0.0
2016-Jun-26 23:31N 39°27' W 000°19'0 0.0
2016-Jun-26 22:28N 39°27' W 000°19'0 0.0
2016-Jun-26 21:33N 39°27' W 000°19'5 5.2
2016-Jun-26 20:33N 39°26' W 000°12'1010.3
2016-Jun-26 19:33N 39°33' W 000°02'3210.5
2016-Jun-26 16:29N 39°56' E 000°28'1010.6
2016-Jun-26 15:33N 40°03' E 000°37'1010.5
2016-Jun-26 14:33N 40°10' E 000°48'1010.3
2016-Jun-26 13:33N 40°16' E 000°58'1110.6
2016-Jun-26 12:33N 40°23' E 001°08'1010.4
2016-Jun-26 11:33N 40°30' E 001°18'1110.5
2016-Jun-26 10:33N 40°37' E 001°29'1110.6
2016-Jun-26 09:33N 40°46' E 001°38'1110.6
2016-Jun-26 08:30N 40°54' E 001°47'1010.7
2016-Jun-26 07:33N 41°02' E 001°55'1111.1
2016-Jun-26 06:33N 41°11' E 002°04'10 9.2
2016-Jun-26 05:28N 41°20' E 002°10'1 1.2
2016-Jun-26 04:26N 41°21' E 002°10'0 0.0
2016-Jun-26 01:20N 41°21' E 002°10'0 0.0
2016-Jun-26 00:29N 41°21' E 002°10'0 0.0
2016-Jun-25 23:20N 41°21' E 002°10'0 0.5
2016-Jun-25 22:33N 41°21' E 002°10'6 5.5
2016-Jun-25 21:26N 41°15' E 002°08'6 7.4
2016-Jun-25 20:33N 41°12' E 002°00'8 7.6
2016-Jun-25 19:33N 41°09' E 001°51'8 6.8
2016-Jun-25 18:23N 41°07' E 001°41'5 6.6
2016-Jun-25 17:33N 41°06' E 001°34'7 7.3
2016-Jun-25 16:33N 41°04' E 001°24'7 7.4
2016-Jun-25 15:33N 41°03' E 001°14'2 2.2
2016-Jun-25 14:25N 41°06' E 001°13'0 0.0
2016-Jun-25 13:13N 41°06' E 001°13'0 0.0
2016-Jun-25 12:31N 41°06' E 001°13'0 0.0
2016-Jun-25 11:32N 41°06' E 001°13'5 4.8
2016-Jun-25 10:34N 41°03' E 001°18'1716.6
2016-Jun-25 09:33N 41°06' E 001°40'1616.4
2016-Jun-25 08:33N 41°09' E 002°01'1716.5
2016-Jun-25 07:33N 41°14' E 002°22'1716.8
2016-Jun-25 06:30N 41°22' E 002°43'1616.9
2016-Jun-25 05:33N 41°29' E 003°02'12116.9
2016-Jun-24 22:22N 42°27' E 005°26'1716.7
2016-Jun-24 21:22N 42°35' E 005°46'1416.9
2016-Jun-24 20:33N 42°42' E 006°02'2517.1
2016-Jun-24 19:07N 42°54' E 006°31'1017.0
2016-Jun-24 18:33N 42°59' E 006°43'1717.1
2016-Jun-24 17:33N 43°09' E 007°01'1717.0
2016-Jun-24 16:33N 43°19' E 007°20'1716.9
2016-Jun-24 15:34N 43°29' E 007°38'1716.9
2016-Jun-24 14:33N 43°40' E 007°57'1717.1
2016-Jun-24 13:34N 43°51' E 008°15'1717.1
2016-Jun-24 12:34N 44°03' E 008°32'1918.6
2016-Jun-24 11:34N 44°15' E 008°51'9 9.0
2016-Jun-24 10:33N 44°24' E 008°54'0 0.1
2016-Jun-24 09:33N 44°24' E 008°54'0 0.0
2016-Jun-24 08:30N 44°24' E 008°54'0 0.0
2016-Jun-24 07:33N 44°24' E 008°54'0 0.0
2016-Jun-24 04:33N 44°24' E 008°54'0 0.0
2016-Jun-24 03:33N 44°24' E 008°54'0 0.0
2016-Jun-24 02:33N 44°24' E 008°54'0 0.0
2016-Jun-24 01:33N 44°24' E 008°54'0 0.0
2016-Jun-24 00:33N 44°24' E 008°54'0 0.0
2016-Jun-23 23:33N 44°24' E 008°54'0 0.0
2016-Jun-23 22:33N 44°24' E 008°54'0 0.0
2016-Jun-23 21:33N 44°24' E 008°54'0 0.0
2016-Jun-23 20:30N 44°24' E 008°54'0 0.0
2016-Jun-23 19:30N 44°24' E 008°54'0 0.0
2016-Jun-23 18:33N 44°24' E 008°54'0 0.0
2016-Jun-23 17:33N 44°24' E 008°54'0 0.0
2016-Jun-23 16:33N 44°24' E 008°54'0 0.0
2016-Jun-23 15:33N 44°24' E 008°54'0 0.0
2016-Jun-23 14:33N 44°24' E 008°54'0 0.0
2016-Jun-23 13:33N 44°24' E 008°54'0 0.0
2016-Jun-23 12:33N 44°24' E 008°54'1 0.5
2016-Jun-23 11:33N 44°24' E 008°54'3 3.3
2016-Jun-23 10:33N 44°22' E 008°58'1818.2
2016-Jun-23 09:33N 44°07' E 009°13'1919.4
2016-Jun-23 08:33N 43°52' E 009°30'1919.4
2016-Jun-23 07:33N 43°37' E 009°47'2311.5
2016-Jun-23 05:33N 43°35' E 010°18'0 0.0
2016-Jun-23 04:30N 43°35' E 010°18'0 0.0
2016-Jun-23 03:33N 43°35' E 010°18'0 0.0
2016-Jun-23 02:33N 43°35' E 010°18'0 0.0
2016-Jun-23 01:33N 43°35' E 010°18'0 0.0
2016-Jun-23 00:33N 43°35' E 010°18'0 0.0
2016-Jun-22 23:33N 43°35' E 010°18'0 0.0
2016-Jun-22 22:32N 43°35' E 010°18'0 0.0
2016-Jun-22 21:30N 43°35' E 010°18'0 0.0
2016-Jun-22 20:33N 43°35' E 010°18'0 0.0
2016-Jun-22 19:33N 43°35' E 010°18'0 0.0
2016-Jun-22 18:33N 43°35' E 010°18'0 0.0
2016-Jun-22 17:33N 43°35' E 010°18'0 0.0
2016-Jun-22 16:30N 43°35' E 010°18'0 0.0
2016-Jun-22 15:33N 43°35' E 010°18'0 0.0
2016-Jun-22 14:30N 43°35' E 010°18'0 0.0
2016-Jun-22 13:33N 43°35' E 010°18'0 0.0
2016-Jun-22 12:32N 43°35' E 010°18'0 0.0
2016-Jun-22 11:33N 43°35' E 010°18'0 0.0
2016-Jun-22 10:24N 43°35' E 010°18'0 0.0
2016-Jun-22 09:29N 43°35' E 010°18'0 0.0
2016-Jun-22 08:33N 43°35' E 010°18'0 0.0
2016-Jun-22 07:33N 43°35' E 010°18'0 0.0
2016-Jun-22 06:30N 43°35' E 010°18'3 3.2
2016-Jun-22 05:33N 43°32' E 010°16'2 2.3
2016-Jun-22 04:33N 43°30' E 010°15'1110.9
2016-Jun-22 03:33N 43°19' E 010°16'1717.2
2016-Jun-22 02:33N 43°02' E 010°23'1717.1
2016-Jun-22 01:33N 42°47' E 010°32'1817.5
2016-Jun-22 00:33N 42°30' E 010°39'1717.4
2016-Jun-21 23:33N 42°14' E 010°50'20317.8
2016-Jun-21 12:11N 39°47' E 013°54'1218.2
2016-Jun-21 11:33N 39°39' E 014°05'1818.0
2016-Jun-21 10:33N 39°26' E 014°20'3917.8
2016-Jun-21 08:22N 38°57' E 014°55'1518.0
2016-Jun-21 07:33N 38°47' E 015°08'3618.0
2016-Jun-21 05:34N 38°20' E 015°39'1313.0
2016-Jun-21 04:33N 38°08' E 015°36'9 9.5
2016-Jun-21 03:33N 37°58' E 015°37'1413.9
2016-Jun-21 02:33N 37°50' E 015°52'36417.3
2016-Jun-20 05:33N 36°36' E 023°20'1918.9
2016-Jun-20 04:33N 36°53' E 023°29'1919.0
2016-Jun-20 03:33N 37°11' E 023°36'1919.1
2016-Jun-20 02:33N 37°30' E 023°40'1918.5
2016-Jun-20 01:34N 37°48' E 023°38'9 9.2
2016-Jun-20 00:32N 37°57' E 023°35'0 0.0
2016-Jun-19 23:32N 37°57' E 023°35'0 0.0
2016-Jun-19 22:32N 37°57' E 023°35'0 0.0
2016-Jun-19 21:32N 37°57' E 023°35'0 0.0
2016-Jun-19 20:32N 37°57' E 023°35'0 0.0
2016-Jun-19 19:32N 37°57' E 023°35'0 0.0
2016-Jun-19 18:32N 37°57' E 023°35'  
Track history (hours):
 
Tides and Currents Weather Stations Pressure Air Temp Water Temp Dewpoint Dewpoint Depression Visibility Wind Speed Wind Dir Waves Ship Positions

Zim Vancouver

Last reported at 2016-Jun-29 18:06 UTC. Time now 2016-Jun-29 23:45 UTC.
Position N 37°44' W 012°45'.

Length 260 m; draft 11.6 m.

Type: Ship. MMSI: 636013214.

Date/timePositionNaut miles runAvg speedWind from/ knotsBaromVisibWave heightAir tempDewpointWater temp
2016-Jun-29 18:06N 37°44' W 012°45'915.4
2016-Jun-29 17:32N 37°42' W 012°34'8715.8
2016-Jun-29 12:00N 37°18' W 010°48'6714.4 010 / 281019.0 5.4 2.020.017.022.0
2016-Jun-29 07:19N 36°57' W 009°28'1414.8
2016-Jun-29 06:23N 36°46' W 009°17'6515.0
2016-Jun-29 02:03N 36°24' W 008°01'11815.7
2016-Jun-28 18:33N 35°58' W 005°38'1515.3
2016-Jun-28 17:33N 36°01' W 005°20'22314.5
2016-Jun-28 02:13N 37°17' W 000°59'1115.8
2016-Jun-28 01:33N 37°24' W 000°49'1616.0
2016-Jun-28 00:33N 37°35' W 000°34'1615.5
2016-Jun-27 23:33N 37°47' W 000°23'1515.4
2016-Jun-27 22:33N 38°00' W 000°12'5115.0
2016-Jun-27 19:08N 38°44' E 000°23'5314.8
2016-Jun-27 15:32N 39°26' W 000°19'1 0.7
2016-Jun-27 14:31N 39°27' W 000°19'0 0.0
2016-Jun-27 13:31N 39°27' W 000°19'0 0.0
2016-Jun-27 12:31N 39°27' W 000°19'0 0.0
2016-Jun-27 11:31N 39°27' W 000°19'0 0.0
2016-Jun-27 10:31N 39°27' W 000°19'0 0.0
2016-Jun-27 09:28N 39°27' W 000°19'0 0.0
2016-Jun-27 08:28N 39°27' W 000°19'0 0.0
2016-Jun-27 07:28N 39°27' W 000°19'0 0.0
2016-Jun-27 06:28N 39°27' W 000°19'0 0.0
2016-Jun-27 05:31N 39°27' W 000°19'0 0.0
2016-Jun-27 04:31N 39°27' W 000°19'0 0.0
2016-Jun-27 03:31N 39°27' W 000°19'0 0.0
2016-Jun-27 02:31N 39°27' W 000°19'0 0.0
2016-Jun-27 01:31N 39°27' W 000°19'0 0.0
2016-Jun-27 00:31N 39°27' W 000°19'0 0.0
2016-Jun-26 23:31N 39°27' W 000°19'0 0.0
2016-Jun-26 22:28N 39°27' W 000°19'0 0.0
2016-Jun-26 21:33N 39°27' W 000°19'5 5.2
2016-Jun-26 20:33N 39°26' W 000°12'1010.3
2016-Jun-26 19:33N 39°33' W 000°02'3210.5
2016-Jun-26 16:29N 39°56' E 000°28'1010.6
2016-Jun-26 15:33N 40°03' E 000°37'1010.5
2016-Jun-26 14:33N 40°10' E 000°48'1010.3
2016-Jun-26 13:33N 40°16' E 000°58'1110.6
2016-Jun-26 12:33N 40°23' E 001°08'1010.4
2016-Jun-26 11:33N 40°30' E 001°18'1110.5
2016-Jun-26 10:33N 40°37' E 001°29'1110.6
2016-Jun-26 09:33N 40°46' E 001°38'1110.6
2016-Jun-26 08:30N 40°54' E 001°47'1010.7
2016-Jun-26 07:33N 41°02' E 001°55'1111.1
2016-Jun-26 06:33N 41°11' E 002°04'10 9.2
2016-Jun-26 05:28N 41°20' E 002°10'1 1.2
2016-Jun-26 04:26N 41°21' E 002°10'0 0.0
2016-Jun-26 01:20N 41°21' E 002°10'0 0.0
2016-Jun-26 00:29N 41°21' E 002°10'0 0.0
2016-Jun-25 23:20N 41°21' E 002°10'0 0.5
2016-Jun-25 22:33N 41°21' E 002°10'6 5.5
2016-Jun-25 21:26N 41°15' E 002°08'6 7.4
2016-Jun-25 20:33N 41°12' E 002°00'8 7.6
2016-Jun-25 19:33N 41°09' E 001°51'8 6.8
2016-Jun-25 18:23N 41°07' E 001°41'5 6.6
2016-Jun-25 17:33N 41°06' E 001°34'7 7.3
2016-Jun-25 16:33N 41°04' E 001°24'7 7.4
2016-Jun-25 15:33N 41°03' E 001°14'2 2.2
2016-Jun-25 14:25N 41°06' E 001°13'0 0.0
2016-Jun-25 13:13N 41°06' E 001°13'0 0.0
2016-Jun-25 12:31N 41°06' E 001°13'0 0.0
2016-Jun-25 11:32N 41°06' E 001°13'5 4.8
2016-Jun-25 10:34N 41°03' E 001°18'1716.6
2016-Jun-25 09:33N 41°06' E 001°40'1616.4
2016-Jun-25 08:33N 41°09' E 002°01'1716.5
2016-Jun-25 07:33N 41°14' E 002°22'1716.8
2016-Jun-25 06:30N 41°22' E 002°43'1616.9
2016-Jun-25 05:33N 41°29' E 003°02'12116.9
2016-Jun-24 22:22N 42°27' E 005°26'1716.7
2016-Jun-24 21:22N 42°35' E 005°46'1416.9
2016-Jun-24 20:33N 42°42' E 006°02'2517.1
2016-Jun-24 19:07N 42°54' E 006°31'1017.0
2016-Jun-24 18:33N 42°59' E 006°43'1717.1
2016-Jun-24 17:33N 43°09' E 007°01'1717.0
2016-Jun-24 16:33N 43°19' E 007°20'1716.9
2016-Jun-24 15:34N 43°29' E 007°38'1716.9
2016-Jun-24 14:33N 43°40' E 007°57'1717.1
2016-Jun-24 13:34N 43°51' E 008°15'1717.1
2016-Jun-24 12:34N 44°03' E 008°32'1918.6
2016-Jun-24 11:34N 44°15' E 008°51'9 9.0
2016-Jun-24 10:33N 44°24' E 008°54'0 0.1
2016-Jun-24 09:33N 44°24' E 008°54'0 0.0
2016-Jun-24 08:30N 44°24' E 008°54'0 0.0
2016-Jun-24 07:33N 44°24' E 008°54'0 0.0
2016-Jun-24 04:33N 44°24' E 008°54'0 0.0
2016-Jun-24 03:33N 44°24' E 008°54'0 0.0
2016-Jun-24 02:33N 44°24' E 008°54'0 0.0
2016-Jun-24 01:33N 44°24' E 008°54'0 0.0
2016-Jun-24 00:33N 44°24' E 008°54'0 0.0
2016-Jun-23 23:33N 44°24' E 008°54'0 0.0
2016-Jun-23 22:33N 44°24' E 008°54'0 0.0
2016-Jun-23 21:33N 44°24' E 008°54'0 0.0
2016-Jun-23 20:30N 44°24' E 008°54'0 0.0
2016-Jun-23 19:30N 44°24' E 008°54'0 0.0
2016-Jun-23 18:33N 44°24' E 008°54'0 0.0
2016-Jun-23 17:33N 44°24' E 008°54'0 0.0
2016-Jun-23 16:33N 44°24' E 008°54'0 0.0
2016-Jun-23 15:33N 44°24' E 008°54'0 0.0
2016-Jun-23 14:33N 44°24' E 008°54'0 0.0
2016-Jun-23 13:33N 44°24' E 008°54'0 0.0
2016-Jun-23 12:33N 44°24' E 008°54'1 0.5
2016-Jun-23 11:33N 44°24' E 008°54'3 3.3
2016-Jun-23 10:33N 44°22' E 008°58'1818.2
2016-Jun-23 09:33N 44°07' E 009°13'1919.4
2016-Jun-23 08:33N 43°52' E 009°30'1919.4
2016-Jun-23 07:33N 43°37' E 009°47'2311.5
2016-Jun-23 05:33N 43°35' E 010°18'0 0.0
2016-Jun-23 04:30N 43°35' E 010°18'0 0.0
2016-Jun-23 03:33N 43°35' E 010°18'0 0.0
2016-Jun-23 02:33N 43°35' E 010°18'0 0.0
2016-Jun-23 01:33N 43°35' E 010°18'0 0.0
2016-Jun-23 00:33N 43°35' E 010°18'0 0.0
2016-Jun-22 23:33N 43°35' E 010°18'0 0.0
2016-Jun-22 22:32N 43°35' E 010°18'0 0.0
2016-Jun-22 21:30N 43°35' E 010°18'0 0.0
2016-Jun-22 20:33N 43°35' E 010°18'0 0.0
2016-Jun-22 19:33N 43°35' E 010°18'0 0.0
2016-Jun-22 18:33N 43°35' E 010°18'0 0.0
2016-Jun-22 17:33N 43°35' E 010°18'0 0.0
2016-Jun-22 16:30N 43°35' E 010°18'0 0.0
2016-Jun-22 15:33N 43°35' E 010°18'0 0.0
2016-Jun-22 14:30N 43°35' E 010°18'0 0.0
2016-Jun-22 13:33N 43°35' E 010°18'0 0.0
2016-Jun-22 12:32N 43°35' E 010°18'0 0.0
2016-Jun-22 11:33N 43°35' E 010°18'0 0.0
2016-Jun-22 10:24N 43°35' E 010°18'0 0.0
2016-Jun-22 09:29N 43°35' E 010°18'0 0.0
2016-Jun-22 08:33N 43°35' E 010°18'0 0.0
2016-Jun-22 07:33N 43°35' E 010°18'0 0.0
2016-Jun-22 06:30N 43°35' E 010°18'3 3.2
2016-Jun-22 05:33N 43°32' E 010°16'2 2.3
2016-Jun-22 04:33N 43°30' E 010°15'1110.9
2016-Jun-22 03:33N 43°19' E 010°16'1717.2
2016-Jun-22 02:33N 43°02' E 010°23'1717.1
2016-Jun-22 01:33N 42°47' E 010°32'1817.5
2016-Jun-22 00:33N 42°30' E 010°39'1717.4
2016-Jun-21 23:33N 42°14' E 010°50'20317.8
2016-Jun-21 12:11N 39°47' E 013°54'1218.2
2016-Jun-21 11:33N 39°39' E 014°05'1818.0
2016-Jun-21 10:33N 39°26' E 014°20'3917.8
2016-Jun-21 08:22N 38°57' E 014°55'1518.0
2016-Jun-21 07:33N 38°47' E 015°08'3618.0
2016-Jun-21 05:34N 38°20' E 015°39'1313.0
2016-Jun-21 04:33N 38°08' E 015°36'9 9.5
2016-Jun-21 03:33N 37°58' E 015°37'1413.9
2016-Jun-21 02:33N 37°50' E 015°52'36417.3
2016-Jun-20 05:33N 36°36' E 023°20'1918.9
2016-Jun-20 04:33N 36°53' E 023°29'1919.0
2016-Jun-20 03:33N 37°11' E 023°36'1919.1
2016-Jun-20 02:33N 37°30' E 023°40'1918.5
2016-Jun-20 01:34N 37°48' E 023°38'9 9.2
2016-Jun-20 00:32N 37°57' E 023°35'0 0.0
2016-Jun-19 23:32N 37°57' E 023°35'0 0.0
2016-Jun-19 22:32N 37°57' E 023°35'0 0.0
2016-Jun-19 21:32N 37°57' E 023°35'0 0.0
2016-Jun-19 20:32N 37°57' E 023°35'0 0.0
2016-Jun-19 19:32N 37°57' E 023°35'0 0.0
2016-Jun-19 18:32N 37°57' E 023°35'  

Dump ship's entire track history